createdAt,value
2023-10-28T00:01:38.481Z,22.90
2023-10-28T00:04:06.078Z,22.85
2023-10-28T00:06:33.173Z,23.02
2023-10-28T00:09:01.004Z,23.60
2023-10-28T00:11:28.487Z,23.85
2023-10-28T00:13:55.566Z,23.77
2023-10-28T00:16:22.746Z,23.52
2023-10-28T00:18:50.307Z,23.60
2023-10-28T00:21:19.206Z,23.70
2023-10-28T00:23:47.526Z,25.35
2023-10-28T00:26:14.722Z,25.50
2023-10-28T00:28:44.039Z,24.08
2023-10-28T00:31:20.517Z,26.83
2023-10-28T00:33:48.097Z,24.50
2023-10-28T00:36:15.232Z,24.85
2023-10-28T00:38:42.341Z,24.38
2023-10-28T00:41:10.062Z,24.30
2023-10-28T00:43:37.727Z,25.90
2023-10-28T00:46:08.265Z,22.55
2023-10-28T00:48:35.988Z,22.42
2023-10-28T00:51:03.152Z,24.00
2023-10-28T00:53:32.101Z,23.30
2023-10-28T00:56:01.368Z,24.55
2023-10-28T00:58:29.331Z,24.17
2023-10-28T01:00:57.647Z,23.75
2023-10-28T01:03:26.374Z,23.35
2023-10-28T01:05:53.593Z,23.15
2023-10-28T01:08:20.818Z,24.73
2023-10-28T01:10:47.958Z,22.77
2023-10-28T01:13:15.040Z,23.52
2023-10-28T01:15:42.035Z,23.23
2023-10-28T01:18:11.390Z,24.35
2023-10-28T01:20:38.626Z,23.95
2023-10-28T01:23:06.449Z,21.90
2023-10-28T01:25:34.739Z,23.17
2023-10-28T01:28:01.929Z,24.45
2023-10-28T01:30:29.110Z,24.33
2023-10-28T01:32:56.742Z,23.20
2023-10-28T01:35:24.008Z,22.52
2023-10-28T01:37:51.087Z,22.88
2023-10-28T01:40:18.717Z,21.02
2023-10-28T01:42:51.459Z,22.17
2023-10-28T01:45:19.141Z,21.70
2023-10-28T01:47:46.323Z,21.05
2023-10-28T01:50:13.914Z,20.92
2023-10-28T01:52:43.437Z,21.00
2023-10-28T01:55:12.574Z,20.85
2023-10-28T01:57:40.834Z,18.88
2023-10-28T02:00:13.728Z,18.70
2023-10-28T02:02:46.365Z,19.55
2023-10-28T02:05:16.233Z,18.48
2023-10-28T02:07:43.464Z,17.23
2023-10-28T02:10:10.914Z,17.90
2023-10-28T02:12:38.572Z,17.15
2023-10-28T02:15:08.359Z,17.20
2023-10-28T02:17:39.484Z,17.65
2023-10-28T02:20:08.216Z,17.60
2023-10-28T02:22:35.938Z,15.25
2023-10-28T02:25:03.061Z,15.85
2023-10-28T02:27:30.618Z,16.58
2023-10-28T02:29:57.603Z,16.10
2023-10-28T02:32:24.956Z,15.63
2023-10-28T02:34:52.639Z,15.10
2023-10-28T02:37:20.405Z,14.85
2023-10-28T02:39:48.490Z,14.68
2023-10-28T02:42:15.540Z,14.65
2023-10-28T02:44:42.529Z,14.48
2023-10-28T02:47:10.838Z,14.93
2023-10-28T02:49:38.511Z,14.18
2023-10-28T02:52:06.672Z,14.68
2023-10-28T02:54:35.355Z,14.13
2023-10-28T02:57:02.566Z,13.60
2023-10-28T02:59:29.583Z,13.35
2023-10-28T03:01:57.034Z,14.00
2023-10-28T03:04:24.096Z,13.52
2023-10-28T03:06:51.209Z,13.90
2023-10-28T03:09:18.595Z,13.40
2023-10-28T03:11:46.921Z,13.35
2023-10-28T03:14:14.000Z,13.68
2023-10-28T03:16:41.892Z,13.73
2023-10-28T03:19:09.007Z,12.77
2023-10-28T03:21:36.029Z,13.30
2023-10-28T03:24:03.101Z,13.20
2023-10-28T03:26:30.890Z,12.77
2023-10-28T03:28:57.970Z,12.68
2023-10-28T03:31:25.444Z,12.38
2023-10-28T03:33:52.975Z,11.85
2023-10-28T03:36:20.048Z,12.93
2023-10-28T03:38:47.121Z,12.65
2023-10-28T03:41:14.382Z,12.65
2023-10-28T03:43:44.519Z,11.77
2023-10-28T03:46:26.270Z,12.57
2023-10-28T03:48:53.421Z,12.82
2023-10-28T03:51:20.465Z,12.50
2023-10-28T03:53:47.625Z,12.05
2023-10-28T03:56:14.735Z,12.65
2023-10-28T03:58:41.794Z,12.63
2023-10-28T04:01:09.087Z,12.75
2023-10-28T04:03:36.370Z,13.18
2023-10-28T04:06:06.078Z,12.27
2023-10-28T04:08:34.735Z,11.77
2023-10-28T04:11:01.816Z,12.63
2023-10-28T04:13:29.012Z,13.40
2023-10-28T04:15:56.129Z,12.57
2023-10-28T04:18:24.244Z,13.43
2023-10-28T04:20:51.594Z,11.77
2023-10-28T04:23:18.633Z,13.35
2023-10-28T04:25:46.108Z,12.85
2023-10-28T04:28:13.188Z,13.23
2023-10-28T04:30:40.216Z,13.02
2023-10-28T04:33:07.426Z,12.50
2023-10-28T04:35:34.710Z,12.95
2023-10-28T04:38:01.800Z,13.30
2023-10-28T04:40:29.005Z,12.77
2023-10-28T04:42:56.091Z,13.15
2023-10-28T04:45:23.536Z,12.43
2023-10-28T04:47:51.901Z,12.98
2023-10-28T04:50:19.437Z,12.65
2023-10-28T04:52:46.930Z,12.32
2023-10-28T04:55:14.609Z,12.90
2023-10-28T04:57:42.708Z,12.40
2023-10-28T05:00:11.043Z,11.85
2023-10-28T05:02:38.140Z,12.85
2023-10-28T05:05:07.034Z,11.80
2023-10-28T05:07:35.236Z,12.02
2023-10-28T05:10:02.926Z,12.70
2023-10-28T05:12:30.179Z,11.90
2023-10-28T05:14:58.757Z,11.43
2023-10-28T05:17:28.617Z,12.07
2023-10-28T05:19:55.697Z,11.68
2023-10-28T05:22:22.689Z,11.55
2023-10-28T05:24:49.777Z,11.55
2023-10-28T05:27:17.068Z,11.25
2023-10-28T05:29:44.203Z,11.95
2023-10-28T05:32:12.159Z,11.32
2023-10-28T05:34:39.884Z,11.85
2023-10-28T05:37:08.242Z,11.20
2023-10-28T05:39:35.456Z,11.10
2023-10-28T05:42:02.595Z,10.85
2023-10-28T05:44:29.539Z,10.25
2023-10-28T05:47:00.359Z,11.07
2023-10-28T05:49:27.507Z,10.38
2023-10-28T05:51:55.222Z,10.27
2023-10-28T05:54:22.276Z,10.10
2023-10-28T05:56:49.360Z,10.48
2023-10-28T05:59:16.791Z,10.48
2023-10-28T06:01:44.365Z,10.02
2023-10-28T06:04:11.558Z,9.35
2023-10-28T06:06:38.991Z,9.88
2023-10-28T06:09:06.020Z,9.07
2023-10-28T06:11:33.030Z,9.77
2023-10-28T06:14:00.143Z,8.68
2023-10-28T06:16:27.415Z,9.43
2023-10-28T06:18:54.709Z,9.23
2023-10-28T06:21:21.753Z,8.73
2023-10-28T06:23:49.208Z,8.25
2023-10-28T06:26:16.460Z,8.98
2023-10-28T06:28:45.481Z,8.25
2023-10-28T06:31:13.414Z,7.95
2023-10-28T06:33:40.453Z,7.55
2023-10-28T06:36:11.445Z,7.57
2023-10-28T06:38:38.716Z,7.72
2023-10-28T06:41:05.987Z,7.60
2023-10-28T06:43:34.431Z,7.97
2023-10-28T06:46:01.500Z,7.35
2023-10-28T06:48:28.727Z,6.97
2023-10-28T06:50:55.917Z,6.80
2023-10-28T06:53:23.118Z,6.55
2023-10-28T06:55:50.621Z,5.82
2023-10-28T06:58:17.700Z,6.38
2023-10-28T07:00:44.954Z,6.20
2023-10-28T07:03:15.567Z,6.47
2023-10-28T07:05:42.926Z,5.68
2023-10-28T07:08:09.981Z,5.97
2023-10-28T07:10:38.447Z,6.18
2023-10-28T07:13:05.541Z,5.50
2023-10-28T07:15:32.712Z,5.38
2023-10-28T07:17:59.933Z,5.93
2023-10-28T07:20:29.321Z,5.30
2023-10-28T07:22:56.363Z,5.35
2023-10-28T07:25:24.023Z,5.38
2023-10-28T07:27:51.323Z,5.05
2023-10-28T07:30:18.373Z,5.20
2023-10-28T07:32:45.459Z,5.22
2023-10-28T07:35:12.700Z,4.80
2023-10-28T07:37:39.813Z,5.00
2023-10-28T07:40:08.026Z,4.88
2023-10-28T07:42:35.704Z,4.32
2023-10-28T07:45:03.336Z,4.60
2023-10-28T07:47:30.441Z,4.78
2023-10-28T07:49:57.796Z,4.65
2023-10-28T07:52:24.868Z,5.05
2023-10-28T07:54:51.997Z,4.65
2023-10-28T07:57:19.039Z,4.43
2023-10-28T07:59:46.333Z,4.53
2023-10-28T08:02:13.514Z,4.20
2023-10-28T08:04:40.931Z,4.28
2023-10-28T08:07:08.037Z,4.00
2023-10-28T08:09:35.031Z,3.90
2023-10-28T08:12:02.101Z,4.38
2023-10-28T08:14:30.238Z,3.92
2023-10-28T08:16:57.732Z,4.05
2023-10-28T08:19:26.113Z,3.72
2023-10-28T08:21:53.181Z,3.60
2023-10-28T08:24:22.006Z,3.47
2023-10-28T08:26:49.810Z,3.30
2023-10-28T08:29:17.080Z,3.50
2023-10-28T08:31:44.168Z,3.70
2023-10-28T08:34:11.419Z,3.53
2023-10-28T08:36:38.621Z,3.60
2023-10-28T08:39:06.561Z,3.67
2023-10-28T08:41:33.725Z,3.80
2023-10-28T08:44:07.096Z,4.07
2023-10-28T08:46:35.067Z,3.83
2023-10-28T08:49:02.398Z,3.70
2023-10-28T08:51:29.965Z,3.63
2023-10-28T08:54:00.249Z,4.00
2023-10-28T08:56:27.928Z,3.88
2023-10-28T08:58:55.466Z,4.07
2023-10-28T09:01:25.371Z,3.78
2023-10-28T09:04:01.427Z,3.95
2023-10-28T09:08:56.763Z,4.10
2023-10-28T09:11:24.932Z,3.88
2023-10-28T09:13:53.622Z,3.75
2023-10-28T09:16:20.866Z,4.13
2023-10-28T09:18:51.761Z,3.95
2023-10-28T09:21:20.474Z,4.00
2023-10-28T09:23:47.717Z,3.83
2023-10-28T09:26:14.838Z,3.90
2023-10-28T09:28:48.350Z,3.60
2023-10-28T09:31:25.570Z,3.67
2023-10-28T09:33:53.016Z,3.60
2023-10-28T09:36:20.944Z,3.55
2023-10-28T09:38:48.816Z,3.50
2023-10-28T09:41:19.427Z,3.35
2023-10-28T09:43:46.607Z,3.42
2023-10-28T09:46:22.087Z,3.25
2023-10-28T09:48:52.703Z,3.30
2023-10-28T09:51:23.391Z,3.10
2023-10-28T09:54:01.246Z,2.95
2023-10-28T09:56:36.088Z,3.30
2023-10-28T09:59:19.334Z,3.38
2023-10-28T10:01:55.894Z,3.63
2023-10-28T10:04:52.655Z,3.67
2023-10-28T10:07:20.118Z,2.90
2023-10-28T10:09:48.837Z,2.90
2023-10-28T10:12:17.471Z,2.90
2023-10-28T10:14:48.833Z,2.83
2023-10-28T10:17:23.871Z,2.83
2023-10-28T10:19:50.995Z,3.03
2023-10-28T10:22:19.708Z,3.10
2023-10-28T10:24:50.942Z,2.75
2023-10-28T10:27:41.056Z,3.10
2023-10-28T10:30:10.466Z,3.17
2023-10-28T10:32:49.410Z,2.88
2023-10-28T10:35:33.883Z,2.80
2023-10-28T10:38:10.218Z,2.67
2023-10-28T10:40:47.240Z,3.10
2023-10-28T10:43:22.502Z,3.15
2023-10-28T10:45:50.403Z,3.15
2023-10-28T10:48:18.137Z,3.05
2023-10-28T10:50:47.007Z,2.90
2023-10-28T10:53:14.335Z,2.88
2023-10-28T10:55:41.630Z,2.75
2023-10-28T10:58:09.031Z,3.17
2023-10-28T11:00:36.131Z,2.90
2023-10-28T11:03:04.859Z,3.10
2023-10-28T11:05:32.557Z,2.45
2023-10-28T11:07:59.751Z,2.90
2023-10-28T11:10:27.897Z,2.70
2023-10-28T11:12:55.008Z,3.00
2023-10-28T11:15:23.684Z,2.88
2023-10-28T11:17:53.793Z,2.88
2023-10-28T11:20:24.165Z,2.60
2023-10-28T11:22:52.426Z,2.67
2023-10-28T11:25:21.593Z,2.78
2023-10-28T11:27:53.147Z,2.45
2023-10-28T11:30:21.292Z,2.40
2023-10-28T11:32:50.503Z,2.22
2023-10-28T11:35:18.012Z,2.40
2023-10-28T11:37:45.025Z,2.40
2023-10-28T11:40:12.924Z,2.75
2023-10-28T11:42:40.481Z,2.50
2023-10-28T11:45:09.065Z,2.60
2023-10-28T11:47:36.277Z,2.60
2023-10-28T11:50:04.411Z,2.42
2023-10-28T11:52:32.879Z,2.60
2023-10-28T11:55:00.592Z,2.58
2023-10-28T11:57:27.743Z,2.15
2023-10-28T11:59:54.914Z,2.45
2023-10-28T12:02:21.944Z,2.60
2023-10-28T12:04:48.983Z,2.50
2023-10-28T12:07:16.000Z,2.17
2023-10-28T12:09:43.169Z,2.40
2023-10-28T12:12:10.481Z,2.30
2023-10-28T12:14:37.914Z,2.13
2023-10-28T12:17:05.807Z,2.60
2023-10-28T12:19:33.816Z,2.60
2023-10-28T12:22:00.996Z,2.22
2023-10-28T12:24:28.067Z,2.40
2023-10-28T12:26:55.150Z,2.70
2023-10-28T12:29:23.024Z,2.10
2023-10-28T12:31:50.196Z,2.60
2023-10-28T12:34:17.253Z,2.20
2023-10-28T12:36:47.543Z,2.72
2023-10-28T12:39:19.031Z,2.20
2023-10-28T12:41:47.830Z,2.33
2023-10-28T12:44:14.974Z,1.98
2023-10-28T12:46:42.146Z,2.60
2023-10-28T12:49:09.469Z,2.17
2023-10-28T12:51:37.529Z,2.22
2023-10-28T12:54:06.765Z,2.25
2023-10-28T12:56:34.029Z,2.40
2023-10-28T12:59:01.284Z,2.05
2023-10-28T13:01:28.630Z,2.15
2023-10-28T13:03:59.345Z,1.85
2023-10-28T13:06:26.833Z,1.90
2023-10-28T13:08:54.250Z,2.35
2023-10-28T13:11:21.489Z,1.98
2023-10-28T13:13:48.745Z,2.10
2023-10-28T13:16:16.017Z,1.85
2023-10-28T13:18:43.115Z,2.10
2023-10-28T13:21:11.047Z,2.15
2023-10-28T13:23:38.054Z,2.13
2023-10-28T13:26:11.279Z,1.83
2023-10-28T13:28:38.724Z,1.70
2023-10-28T13:31:06.096Z,1.85
2023-10-28T13:33:33.482Z,1.90
2023-10-28T13:36:03.089Z,1.90
2023-10-28T13:38:30.554Z,1.95
2023-10-28T13:40:57.692Z,1.98
2023-10-28T13:43:24.873Z,1.92
2023-10-28T13:45:53.874Z,2.25
2023-10-28T13:48:21.692Z,2.22
2023-10-28T13:50:48.821Z,2.15
2023-10-28T13:53:15.914Z,2.17
2023-10-28T13:55:43.144Z,2.00
2023-10-28T13:58:10.533Z,2.10
2023-10-28T14:00:37.759Z,2.30
2023-10-28T14:03:04.902Z,1.95
2023-10-28T14:05:34.046Z,2.15
2023-10-28T14:08:01.790Z,2.38
2023-10-28T14:10:28.807Z,2.42
2023-10-28T14:12:56.021Z,2.03
2023-10-28T14:15:23.327Z,2.00
2023-10-28T14:17:50.648Z,2.20
2023-10-28T14:20:19.466Z,2.40
2023-10-28T14:22:46.616Z,1.88
2023-10-28T14:25:13.951Z,2.20
2023-10-28T14:27:43.463Z,2.33
2023-10-28T14:30:14.739Z,2.10
2023-10-28T14:32:42.258Z,2.03
2023-10-28T14:35:10.222Z,2.25
2023-10-28T14:37:40.475Z,2.60
2023-10-28T14:40:08.877Z,2.40
2023-10-28T14:42:39.765Z,2.50
2023-10-28T14:45:12.467Z,2.38
2023-10-28T14:47:40.848Z,2.30
2023-10-28T14:50:09.447Z,2.72
2023-10-28T14:52:38.722Z,2.60
2023-10-28T14:55:09.398Z,2.78
2023-10-28T14:57:44.103Z,2.30
2023-10-28T15:00:23.734Z,2.53
2023-10-28T15:02:51.231Z,2.30
2023-10-28T15:05:18.491Z,2.42
2023-10-28T15:07:45.654Z,2.47
2023-10-28T15:10:12.665Z,2.28
2023-10-28T15:12:39.751Z,2.60
2023-10-28T15:15:07.761Z,2.63
2023-10-28T15:17:35.104Z,2.50
2023-10-28T15:20:02.303Z,2.50
2023-10-28T15:22:29.508Z,2.50
2023-10-28T15:24:56.619Z,2.50
2023-10-28T15:27:23.823Z,2.65
2023-10-28T15:29:52.729Z,2.70
2023-10-28T15:32:21.692Z,2.60
2023-10-28T15:34:49.965Z,3.08
2023-10-28T15:37:18.230Z,2.80
2023-10-28T15:39:45.649Z,3.13
2023-10-28T15:42:12.989Z,2.95
2023-10-28T15:44:40.213Z,3.22
2023-10-28T15:47:07.386Z,3.00
2023-10-28T15:49:34.463Z,3.08
2023-10-28T15:52:01.657Z,3.22
2023-10-28T15:54:29.089Z,3.13
2023-10-28T15:56:56.239Z,3.63
2023-10-28T15:59:23.630Z,4.05
2023-10-28T16:01:50.983Z,3.53
2023-10-28T16:04:18.103Z,4.15
2023-10-28T16:06:46.691Z,4.22
2023-10-28T16:09:17.738Z,3.38
2023-10-28T16:11:45.037Z,3.60
2023-10-28T16:14:12.400Z,3.42
2023-10-28T16:16:39.979Z,3.20
2023-10-28T16:19:08.190Z,2.72
2023-10-28T16:21:39.498Z,3.30
2023-10-28T16:24:07.424Z,3.13
2023-10-28T16:26:34.756Z,3.50
2023-10-28T16:29:01.896Z,3.13
2023-10-28T16:31:28.960Z,3.28
2023-10-28T16:33:55.989Z,3.03
2023-10-28T16:36:23.160Z,3.42
2023-10-28T16:38:50.327Z,3.70
2023-10-28T16:41:17.479Z,3.92
2023-10-28T16:43:44.778Z,4.40
2023-10-28T16:46:15.710Z,3.67
2023-10-28T16:48:42.981Z,3.45
2023-10-28T16:51:15.564Z,3.55
2023-10-28T16:53:43.911Z,4.15
2023-10-28T16:56:14.044Z,4.03
2023-10-28T16:58:41.168Z,3.90
2023-10-28T17:01:09.434Z,3.63
2023-10-28T17:03:40.509Z,3.97
2023-10-28T17:06:07.902Z,3.40
2023-10-28T17:08:35.382Z,3.97
2023-10-28T17:11:05.378Z,3.40
2023-10-28T17:13:32.756Z,3.83
2023-10-28T17:15:59.975Z,3.42
2023-10-28T17:18:27.272Z,3.60
2023-10-28T17:20:54.650Z,3.70
2023-10-28T17:23:21.812Z,3.58
2023-10-28T17:25:48.905Z,3.35
2023-10-28T17:28:16.475Z,3.60
2023-10-28T17:30:43.649Z,3.58
2023-10-28T17:33:12.752Z,4.22
2023-10-28T17:35:43.682Z,4.10
2023-10-28T17:38:11.785Z,4.40
2023-10-28T17:40:39.686Z,4.30
2023-10-28T17:43:06.905Z,3.75
2023-10-28T17:45:34.049Z,4.88
2023-10-28T17:48:02.528Z,3.90
2023-10-28T17:50:30.618Z,4.18
2023-10-28T17:52:57.874Z,3.85
2023-10-28T17:55:25.237Z,3.85
2023-10-28T17:57:52.532Z,3.70
2023-10-28T18:00:21.032Z,3.60
2023-10-28T18:02:48.807Z,3.65
2023-10-28T18:05:16.054Z,3.50
2023-10-28T18:07:43.196Z,3.08
2023-10-28T18:10:10.434Z,3.58
2023-10-28T18:12:37.750Z,3.58
2023-10-28T18:15:05.752Z,3.15
2023-10-28T18:17:33.178Z,3.30
2023-10-28T18:20:00.478Z,3.17
2023-10-28T18:22:27.527Z,3.58
2023-10-28T18:24:55.235Z,3.85
2023-10-28T18:27:22.772Z,3.65
2023-10-28T18:29:50.361Z,3.10
2023-10-28T18:32:17.616Z,3.45
2023-10-28T18:34:48.526Z,3.53
2023-10-28T18:37:15.704Z,3.35
2023-10-28T18:39:42.812Z,3.40
2023-10-28T18:42:10.206Z,3.45
2023-10-28T18:44:37.593Z,3.70
2023-10-28T18:47:07.029Z,3.70
2023-10-28T18:49:34.226Z,3.47
2023-10-28T18:52:05.102Z,3.25
2023-10-28T18:54:32.525Z,3.25
2023-10-28T18:56:59.628Z,3.58
2023-10-28T18:59:26.836Z,3.60
2023-10-28T19:01:55.367Z,3.45
2023-10-28T19:04:22.609Z,3.65
2023-10-28T19:06:50.029Z,3.53
2023-10-28T19:09:17.289Z,3.85
2023-10-28T19:11:44.494Z,3.55
2023-10-28T19:14:11.703Z,3.42
2023-10-28T19:16:38.826Z,3.58
2023-10-28T19:19:06.791Z,3.47
2023-10-28T19:21:33.775Z,3.75
2023-10-28T19:24:00.903Z,3.40
2023-10-28T19:26:28.315Z,3.15
2023-10-28T19:28:55.699Z,3.40
2023-10-28T19:31:22.821Z,3.30
2023-10-28T19:33:52.281Z,3.22
2023-10-28T19:36:20.212Z,3.72
2023-10-28T19:38:47.585Z,3.55
2023-10-28T19:41:14.756Z,3.30
2023-10-28T19:43:41.901Z,3.53
2023-10-28T19:46:09.954Z,3.53
2023-10-28T19:48:37.339Z,3.90
2023-10-28T19:51:06.600Z,3.92
2023-10-28T19:53:40.452Z,3.67
2023-10-28T19:56:09.329Z,3.70
2023-10-28T19:58:40.574Z,3.45
2023-10-28T20:01:10.257Z,3.30
2023-10-28T20:03:37.844Z,3.38
2023-10-28T20:06:07.730Z,3.05
2023-10-28T20:08:37.556Z,2.83
2023-10-28T20:11:05.689Z,3.22
2023-10-28T20:13:34.413Z,3.35
2023-10-28T20:16:02.447Z,3.38
2023-10-28T20:18:29.923Z,2.58
2023-10-28T20:20:57.330Z,3.03
2023-10-28T20:23:25.185Z,3.13
2023-10-28T20:25:52.334Z,2.97
2023-10-28T20:28:19.363Z,3.20
2023-10-28T20:30:46.654Z,2.42
2023-10-28T20:33:16.481Z,3.10
2023-10-28T20:35:44.863Z,3.30
2023-10-28T20:38:13.179Z,3.42
2023-10-28T20:40:42.157Z,2.83
2023-10-28T20:43:09.471Z,3.10
2023-10-28T20:45:36.540Z,2.80
2023-10-28T20:48:03.832Z,2.67
2023-10-28T20:50:32.934Z,2.35
2023-10-28T20:53:00.684Z,2.70
2023-10-28T20:55:28.023Z,3.15
2023-10-28T20:57:55.059Z,2.60
2023-10-28T21:00:23.691Z,2.83
2023-10-28T21:02:50.800Z,2.78
2023-10-28T21:05:18.087Z,2.67
2023-10-28T21:07:45.181Z,3.42
2023-10-28T21:10:12.245Z,3.28
2023-10-28T21:12:39.585Z,3.00
2023-10-28T21:15:07.484Z,3.50
2023-10-28T21:17:34.577Z,3.20
2023-10-28T21:20:01.666Z,3.33
2023-10-28T21:22:29.103Z,3.33
2023-10-28T21:24:56.276Z,3.08
2023-10-28T21:27:23.374Z,3.10
2023-10-28T21:29:50.856Z,3.20
2023-10-28T21:32:19.341Z,3.63
2023-10-28T21:34:46.525Z,3.72
2023-10-28T21:37:13.808Z,3.60
2023-10-28T21:39:40.944Z,3.40
2023-10-28T21:42:07.981Z,3.25
2023-10-28T21:44:35.059Z,3.00
2023-10-28T21:47:02.167Z,2.67
2023-10-28T21:49:29.277Z,3.25
2023-10-28T21:51:56.396Z,3.13
2023-10-28T21:54:23.550Z,3.30
2023-10-28T21:56:50.609Z,3.20
2023-10-28T21:59:17.608Z,3.13
2023-10-28T22:01:44.820Z,3.20
2023-10-28T22:04:12.163Z,3.17
2023-10-28T22:06:39.428Z,2.70
2023-10-28T22:09:07.409Z,2.60
2023-10-28T22:11:34.450Z,2.30
2023-10-28T22:14:01.571Z,2.60
2023-10-28T22:16:29.511Z,2.70
2023-10-28T22:18:56.809Z,2.80
2023-10-28T22:21:24.156Z,2.75
2023-10-28T22:23:51.262Z,2.70
2023-10-28T22:26:18.490Z,2.88
2023-10-28T22:28:45.730Z,2.85
2023-10-28T22:31:12.852Z,3.03
2023-10-28T22:33:39.907Z,3.13
2023-10-28T22:36:07.378Z,2.70
2023-10-28T22:38:35.305Z,2.90
2023-10-28T22:41:02.420Z,3.10
2023-10-28T22:43:29.656Z,3.03
2023-10-28T22:45:56.795Z,3.13
2023-10-28T22:48:23.894Z,3.10
2023-10-28T22:50:51.113Z,3.30
2023-10-28T22:53:18.318Z,2.90
2023-10-28T22:55:45.434Z,2.65
2023-10-28T22:58:12.653Z,3.20
2023-10-28T23:00:39.722Z,3.28
2023-10-28T23:03:08.833Z,2.90
2023-10-28T23:05:37.207Z,2.90
2023-10-28T23:08:04.548Z,3.78
2023-10-28T23:10:31.774Z,3.42
2023-10-28T23:12:59.352Z,3.70
2023-10-28T23:15:26.930Z,3.28
2023-10-28T23:17:54.446Z,3.15
2023-10-28T23:20:21.623Z,2.88
2023-10-28T23:22:49.335Z,3.03
2023-10-28T23:25:17.032Z,2.60
2023-10-28T23:27:44.219Z,2.75
2023-10-28T23:30:12.095Z,2.85
2023-10-28T23:32:39.371Z,2.72
2023-10-28T23:35:06.677Z,2.83
2023-10-28T23:37:34.164Z,2.20
2023-10-28T23:40:06.354Z,2.50
2023-10-28T23:42:34.198Z,2.58
2023-10-28T23:45:01.458Z,2.50
2023-10-28T23:47:28.576Z,2.08
2023-10-28T23:49:55.764Z,2.40
2023-10-28T23:52:23.413Z,2.42
2023-10-28T23:54:50.586Z,2.40
2023-10-28T23:57:17.614Z,2.28
2023-10-28T23:59:44.919Z,2.63
